Terminal Aerodrome Forecast
Issued by NWS

Current Version | Previous Version | Graphics & Text | Print | Product List | Glossary On
Versions: 1 2 3 4 5 6 7 8 9 10 11 12 13 14 15 16 17 18 19 20 21 22 23 24 25 26 27 28 29 30 31 32 33 34
000
FTUS41 KILN 291900 AAB
TAFLUK
TAF AMD
KLUK 291956Z 2920/3018 23007KT P6SM VCTS SCT029CB OVC040
      TEMPO 2920/2922 3SM -TSRA BR OVC029CB
     FM300100 25006KT P6SM BKN035
     FM301400 24008KT P6SM VCSH BKN040=

USA.gov is the U.S. government's official web portal to all federal, state and local government web resources and services.